NEODyS-2

Near Earth Objects - Dynamic Site
NEODyS ∴ Observatories ∴ Site 691 ∴ Obs & residuals
Contact »
691  ▹ 
OBSERVATIONS AND RESIDUALS

691-Steward Observatory, Kitt Peak-Spacewatch

Detections | Residuals | Detections & Residuals

[1-200] [201-400] [401-600] [601-800] [801-1000] [1001-1200] [1201-1400] [1401-1600] [1601-1800] [1801-2000] [2001-2200] [2201-2400] [2401-2600] [2601-2800] [2801-3000] [3001-3200] [3201-3400] [3401-3600] [3601-3800] [3801-4000] [4001-4200] [4201-4400] [4401-4600] [4601-4800] [4801-5000] [5001-5200] [5201-5400] [5401-5600] [5601-5800] [5801-6000] [6001-6200] [6201-6400] [6401-6600] [6601-6800] [6801-7000] [7001-7200] [7201-7400] [7401-7600] [7601-7800] [7801-8000] [8001-8200] [8201-8400] [8401-8600] [8601-8800] [8801-9000] [9001-9200] [9201-9400] [9401-9600] [9601-9800] [9801-10000] [10001-10200] [10201-10400] [10401-10600] [10601-10800] [10801-11000] [11001-11200] [11201-11400] [11401-11600] [11601-11800] [11801-12000] [12001-12200] [12201-12400] [12401-12600] [12601-12800] [12801-13000] [13001-13200] [13201-13400] [13401-13600] [13601-13800] [13801-14000] [14001-14200] [14201-14400] [14401-14600] [14601-14800] [14801-15000] [15001-15200] [15201-15400] [15401-15600] [15601-15800] [15801-16000] [16001-16200] [16201-16400] [16401-16600] [16601-16800] [16801-17000] [17001-17200] [17201-17400] [17401-17600] [17601-17800] [17801-18000] [18001-18200] [18201-18400] [18401-18600] [18601-18800] [18801-19000] [19001-19200] [19201-19400] [19401-19600] [19601-19800] [19801-20000] [20001-20200] [20201-20400] [20401-20600] [20601-20800] [20801-21000] [21001-21200] [21201-21400] [21401-21600] [21601-21800] [21801-22000] [22001-22200] [22201-22400] [22401-22600] [22601-22800] [22801-23000] [23001-23200] [23201-23400] [23401-23600] [23601-23800] [23801-24000] [24001-24200] [24201-24400] [24401-24600] [24601-24800] [24801-25000] [25001-25200] [25201-25400] [25401-25600] [25601-25800] [25801-26000] [26001-26200] [26201-26400] [26401-26600] [26601-26800] [26801-27000] [27001-27200] [27201-27400] [27401-27600] [27601-27800] [27801-28000] [28001-28200] [28201-28400] [28401-28600] [28601-28800] [28801-29000] [29001-29200] [29201-29400] [29401-29600] [29601-29800] [29801-30000] [30001-30200] [30201-30400] [30401-30600] [30601-30800] [30801-31000] [31001-31200] [31201-31400] [31401-31600] [31601-31800] [31801-32000] [32001-32200] [32201-32400] [32401-32600] [32601-32800] [32801-33000] [33001-33200] [33201-33400] [33401-33600] [33601-33800] [33801-34000] [34001-34200] [34201-34400] [34401-34600] [34601-34800] [34801-35000] [35001-35200] [35201-35400] [35401-35600] [35601-35800] [35801-36000] [36001-36200] [36201-36400] [36401-36600] [36601-36800] [36801-37000] [37001-37200] [37201-37400] [37401-37600] [37601-37800] [37801-38000] [38001-38200] [38201-38400] [38401-38600] [38601-38800] [38801-39000] [39001-39200] [39201-39400] [39401-39600] [39601-39800] [39801-40000] [40001-40200] [40201-40400] [40401-40600] [40601-40800] [40801-41000] [41001-41200] [41201-41400] [41401-41600] [41601-41800] [41801-42000] [42001-42200] [42201-42400] [42401-42600] [42601-42800] [42801-43000] [43001-43200] [43201-43400] [43401-43600] [43601-43800] [43801-44000] [44001-44200] [44201-44400] [44401-44600] [44601-44800] [44801-45000] [45001-45200] [45201-45400] [45401-45600] [45601-45800] [45801-46000] [46001-46200] [46201-46400] [46401-46600] [46601-46800] [46801-47000] [47001-47200] [47201-47400] [47401-47600] [47601-47800] [47801-48000] [48001-48200] [48201-48400] [48401-48600] [48601-48800] [48801-49000] [49001-49200] [49201-49400] [49401-49600] [49601-49800] [49801-50000] [50001-50200] [50201-50400] [50401-50600] [50601-50741]

Designation T Tech N Date Right Ascension Declination Apparent Magnitude Star Catalog Site code χ Used A Used M
yr-mo-day precision hr:min:sec precision rms F bias residual deg min sec precision rms F bias residual mag/col rms residual
1999RV2 O C 2018-11-01.15521 1.000E-05 21:48:33.610 1.500E-01 0.500 F -0.089 -0.145 -02° 31' 06.50" 1.000E-01 0.500 F 0.257 0.160 19.4 V 0.70 0.31 o 691 0.43 Yes Yes
2018TL2 O C K 2018-11-01.17012 1.000E-05 23:16:54.770 1.500E-01 0.500 F -0.280 -0.302 -11° 55' 12.10" 1.000E-01 0.500 F 0.320 0.617 21.0 R 0.70 0.15 o 691 1.38 Yes Yes
2018TL2 O C K 2018-11-01.18189 1.000E-05 23:16:54.430 1.500E-01 0.500 F -0.280 0.081 -11° 55' 13.50" 1.000E-01 0.500 F 0.320 -0.281 21.1 R 0.70 0.25 o 691 0.59 Yes Yes
2018TL2 O C K 2018-11-01.19367 1.000E-05 23:16:54.040 1.500E-01 0.500 F -0.280 -0.279 -11° 55' 13.40" 1.000E-01 0.500 F 0.320 0.303 21.3 R 0.70 0.45 o 691 0.83 Yes Yes
2018UM1 O C 2018-11-01.22150 1.000E-05 23:59:38.950 1.500E-01 0.500 F -0.240 0.253 +16° 14' 34.20" 1.000E-01 0.500 F 0.413 0.309 20.3 V 0.70 0.12 o 691 0.80 Yes Yes
2018UM1 O C 2018-11-01.22303 1.000E-05 23:59:39.280 1.500E-01 0.500 F -0.240 0.021 +16° 14' 31.60" 1.000E-01 0.500 F 0.413 -0.546 20.1 V 0.70 -0.08 o 691 1.09 Yes Yes
2018UM1 O C 2018-11-01.22455 1.000E-05 23:59:39.610 1.500E-01 0.500 F -0.240 -0.178 +16° 14' 30.30" 1.000E-01 0.500 F 0.413 -0.111 19.9 V 0.70 -0.28 o 691 0.42 Yes Yes
2009HW44 O C 2018-11-01.24536 1.000E-05 01:12:11.590 1.500E-01 0.500 F -0.327 -0.330 -14° 14' 08.20" 1.000E-01 0.500 F 0.287 -0.206 17.5 V 0.70 0.42 o 691 0.78 Yes Yes
2009HW44 O C 2018-11-01.25111 1.000E-05 01:12:10.230 1.500E-01 0.500 F -0.327 -0.101 -14° 13' 27.10" 1.000E-01 0.500 F 0.287 -0.384 17.9 V 0.70 0.82 o 691 0.80 Yes Yes
2009HW44 O C 2018-11-01.25686 1.000E-05 01:12:08.840 1.500E-01 0.500 F -0.327 -0.315 -14° 12' 45.40" 1.000E-01 0.500 F 0.287 0.038 17.9 V 0.70 0.82 o 691 0.64 Yes Yes
2018UM1 O C H 2018-11-02.14886 1.000E-05 00:03:34.420 1.500E-01 0.500 F -0.194 -0.089 +15° 57' 37.50" 1.000E-01 0.500 F 0.405 -0.302 20.5 R 0.70 0.65 o 691 0.63 Yes Yes
2018UM1 O C H 2018-11-02.15852 1.000E-05 00:03:36.520 1.500E-01 0.500 F -0.194 0.048 +15° 57' 28.40" 1.000E-01 0.500 F 0.405 0.598 20.5 R 0.70 0.65 o 691 1.20 Yes Yes
2018UM1 O C H 2018-11-02.16786 1.000E-05 00:03:38.530 1.500E-01 0.500 F -0.194 -0.040 +15° 57' 17.90" 1.000E-01 0.500 F 0.405 -0.173 20.1 R 0.70 0.25 o 691 0.36 Yes Yes
2018LZ5 O C H 2018-11-02.21596 1.000E-05 01:54:14.450 1.500E-01 0.500 F -0.275 -0.026 -08° 39' 36.20" 1.000E-01 0.500 F 0.231 0.039 20.4 R 0.70 0.38 o 691 0.09 Yes Yes
2018LZ5 O C H 2018-11-02.22305 1.000E-05 01:54:14.360 1.500E-01 0.500 F -0.275 -0.014 -08° 39' 36.00" 1.000E-01 0.500 F 0.231 0.248 20.3 R 0.70 0.28 o 691 0.50 Yes Yes
2018LZ5 O C H 2018-11-02.23014 1.000E-05 01:54:14.260 1.500E-01 0.500 F -0.275 -0.142 -08° 39' 36.00" 1.000E-01 0.500 F 0.231 0.250 20.3 R 0.70 0.27 o 691 0.58 Yes Yes
2016RY40 O C K 2018-11-02.23772 1.000E-05 01:01:09.900 1.500E-01 0.500 F -0.293 0.092 -10° 03' 12.50" 1.000E-01 0.500 F 0.067 -0.218 21.5 R 0.70 0.26 o 691 0.48 Yes Yes
2009HW44 O C H 2018-11-02.24320 1.000E-05 01:08:28.730 1.500E-01 0.500 F -0.268 0.122 -12° 16' 21.00" 1.000E-01 0.500 F 0.210 -0.053 17.1 R 0.70 0.39 o 691 0.27 Yes Yes
2016RY40 O C K 2018-11-02.24704 1.000E-05 01:01:09.070 1.500E-01 0.500 F -0.293 0.021 -10° 03' 09.60" 1.000E-01 0.500 F 0.067 0.021 21.6 R 0.70 0.36 o 691 0.06 Yes Yes
2009HW44 O C H 2018-11-02.25253 1.000E-05 01:08:26.640 1.500E-01 0.500 F -0.268 0.311 -12° 15' 15.90" 1.000E-01 0.500 F 0.210 -0.097 17.4 R 0.70 0.69 o 691 0.66 Yes Yes
2016RY40 O C K 2018-11-02.25637 1.000E-05 01:01:08.270 1.500E-01 0.500 F -0.293 0.402 -10° 03' 06.40" 1.000E-01 0.500 F 0.067 0.550 21.2 R 0.70 -0.04 o 691 1.38 Yes Yes
2009HW44 O C H 2018-11-02.26186 1.000E-05 01:08:24.510 1.500E-01 0.500 F -0.268 -0.108 -12° 14' 10.80" 1.000E-01 0.500 F 0.210 -0.139 17.6 R 0.70 0.88 o 691 0.36 Yes Yes
2018TR2 O C K 2018-11-02.26554 1.000E-05 01:16:20.030 1.500E-01 0.500 F -0.202 -0.244 -03° 37' 26.60" 1.000E-01 0.500 F 0.094 -0.182 21.0 R 0.70 -0.36 o 691 0.64 Yes Yes
2018TR2 O C K 2018-11-02.27773 1.000E-05 01:16:20.180 1.500E-01 0.500 F -0.202 -0.160 -03° 37' 22.90" 1.000E-01 0.500 F 0.094 0.258 21.4 R 0.70 0.04 o 691 0.63 Yes Yes
2018TR2 O C K 2018-11-02.28988 1.000E-05 01:16:20.370 1.500E-01 0.500 F -0.202 0.498 -03° 37' 20.40" 1.000E-01 0.500 F 0.094 -0.504 21.2 R 0.70 -0.16 o 691 1.46 Yes Yes
2015UH51 O C K 2018-11-02.34636 1.000E-05 02:56:40.600 1.500E-01 0.500 F -0.325 0.697 -04° 49' 20.40" 1.000E-01 0.500 F 0.266 -0.487 o 691 1.71 Yes No
2015UH51 O C K 2018-11-02.35677 1.000E-05 02:56:38.770 1.500E-01 0.500 F -0.325 1.439 -04° 49' 13.80" 1.000E-01 0.500 F 0.266 -0.652 22.0 R 0.70 1.01 o 691 3.15 No Yes
2015UH51 O C K 2018-11-02.36505 1.000E-05 02:56:37.210 1.500E-01 0.500 F -0.325 0.463 -04° 49' 07.60" 1.000E-01 0.500 F 0.266 0.164 22.2 R 0.70 1.21 o 691 0.99 Yes Yes
2005FN4 O C K 2018-11-02.37295 1.000E-05 05:04:45.800 1.500E-01 0.500 F -0.130 -0.380 -16° 44' 51.90" 1.000E-01 0.500 F 0.077 0.057 21.4 R 0.70 0.54 o 691 0.80 Yes Yes
2005FN4 O C K 2018-11-02.39205 1.000E-05 05:04:43.690 1.500E-01 0.500 F -0.130 -0.208 -16° 45' 11.60" 1.000E-01 0.500 F 0.077 0.019 21.9 R 0.70 1.04 o 691 0.43 Yes Yes
2015XQ55 O C 2018-11-02.40291 1.000E-05 04:38:19.330 1.500E-01 0.500 F -0.169 -0.708 +15° 09' 20.20" 1.000E-01 0.500 F 0.228 -0.080 20.0 V 0.70 -0.38 o 691 1.44 Yes Yes
2015XQ55 O C 2018-11-02.40398 1.000E-05 04:38:18.850 1.500E-01 0.500 F -0.169 -0.685 +15° 09' 20.80" 1.000E-01 0.500 F 0.228 -0.014 20.2 V 0.70 -0.18 o 691 1.39 Yes Yes
2018RU5 O C K 2018-11-02.40577 1.000E-05 04:44:13.910 1.500E-01 0.500 F -0.208 0.372 +21° 05' 28.80" 1.000E-01 0.500 F 0.231 -0.632 o 691 1.47 Yes No
2014XR6 O C K 2018-11-02.41078 1.000E-05 04:46:36.050 1.500E-01 0.500 F -0.228 -0.197 +07° 20' 50.30" 1.000E-01 0.500 F 0.231 0.404 20.5 R 0.70 0.57 o 691 0.90 Yes Yes
2015XQ55 O C 2018-11-02.41460 1.000E-05 04:38:14.080 1.500E-01 0.500 F -0.169 -0.545 +15° 09' 25.80" 1.000E-01 0.500 F 0.228 -0.287 20.6 V 0.70 0.22 o 691 1.25 Yes Yes
2018RU5 O C K 2018-11-02.41745 1.000E-05 04:44:13.270 1.500E-01 0.500 F -0.208 0.114 +21° 05' 32.10" 1.000E-01 0.500 F 0.231 -0.102 20.8 R 0.70 0.29 o 691 0.31 Yes Yes
2014XR6 O C K 2018-11-02.42235 1.000E-05 04:46:35.580 1.500E-01 0.500 F -0.228 -0.024 +07° 20' 58.80" 1.000E-01 0.500 F 0.231 0.208 20.5 R 0.70 0.57 o 691 0.42 Yes Yes
2018RU5 O C K 2018-11-02.42902 1.000E-05 04:44:12.660 1.500E-01 0.500 F -0.208 0.187 +21° 05' 34.40" 1.000E-01 0.500 F 0.231 -0.517 o 691 1.10 Yes No
2014XR6 O C K 2018-11-02.43399 1.000E-05 04:46:35.080 1.500E-01 0.500 F -0.228 -0.255 +07° 21' 07.20" 1.000E-01 0.500 F 0.231 -0.139 20.6 R 0.70 0.67 o 691 0.58 Yes Yes
2012WP3 O C 2018-11-02.45070 1.000E-05 03:02:37.460 1.500E-01 0.500 F -0.310 -0.095 +24° 37' 37.70" 1.000E-01 0.500 F 0.307 -0.143 16.9 V 0.70 0.02 o 691 0.34 Yes Yes
2012WP3 O C 2018-11-02.45408 1.000E-05 03:02:37.430 1.500E-01 0.500 F -0.310 -0.203 +24° 37' 24.60" 1.000E-01 0.500 F 0.307 -0.138 17.0 V 0.70 0.12 o 691 0.49 Yes Yes
2012WP3 O C 2018-11-02.46833 1.000E-05 03:02:37.350 1.500E-01 0.500 F -0.310 -0.097 +24° 36' 29.60" 1.000E-01 0.500 F 0.307 0.142 17.0 V 0.70 0.12 o 691 0.35 Yes Yes
2018VB1 O C K 2018-11-02.51733 1.000E-05 04:07:33.030 1.500E-01 0.500 F -0.029 -0.317 +05° 58' 50.90" 1.000E-01 0.500 F 0.288 -0.140 18.6 R 0.70 0.07 o 691 0.70 Yes Yes
2018VB1 O C K 2018-11-02.51921 1.000E-05 04:07:30.920 1.500E-01 0.500 F -0.029 -0.308 +05° 58' 54.10" 1.000E-01 0.500 F 0.288 -0.071 18.6 R 0.70 0.07 o 691 0.64 Yes Yes
2018VB1 O C K 2018-11-02.52109 1.000E-05 04:07:28.820 1.500E-01 0.500 F -0.150 -0.042 +05° 58' 57.20" 1.000E-01 0.500 F 0.158 0.029 18.3 R 0.70 -0.23 o 691 0.10 Yes Yes
2001TZ1 O C K 2018-11-03.07040 1.000E-05 19:54:33.120 1.500E-01 0.500 F -0.111 -0.159 -07° 23' 28.00" 1.000E-01 0.500 F 0.262 0.051 o 691 0.33 Yes No
2001TZ1 O C K 2018-11-03.07523 1.000E-05 19:54:34.530 1.500E-01 0.500 F -0.111 0.193 -07° 23' 40.10" 1.000E-01 0.500 F 0.262 0.164 o 691 0.51 Yes No
2001TZ1 O C K 2018-11-03.08006 1.000E-05 19:54:35.910 1.500E-01 0.500 F -0.111 0.095 -07° 23' 52.60" 1.000E-01 0.500 F 0.262 -0.125 o 691 0.31 Yes No
2018VS O C K 2018-11-03.08885 1.000E-05 23:50:25.870 1.500E-01 0.500 F -0.064 -0.252 +02° 51' 23.60" 1.000E-01 0.500 F 0.294 -0.083 o 691 0.54 Yes No
2018VS O C K 2018-11-03.09321 1.000E-05 23:50:27.420 1.500E-01 0.500 F -0.064 -0.226 +02° 51' 05.60" 1.000E-01 0.500 F 0.294 0.026 o 691 0.46 Yes No
2018VS O C K 2018-11-03.09760 1.000E-05 23:50:28.990 1.500E-01 0.500 F -0.064 -0.030 +02° 50' 47.10" 1.000E-01 0.500 F 0.294 -0.232 o 691 0.47 Yes No
2018TP O C K 2018-11-03.11394 1.000E-05 00:46:00.300 1.500E-01 0.500 F -0.272 -0.047 -19° 43' 56.20" 1.000E-01 0.500 F 0.113 0.068 o 691 0.17 Yes No
2018TP O C K 2018-11-03.12197 1.000E-05 00:46:00.820 1.500E-01 0.500 F -0.272 -0.223 -19° 43' 56.50" 1.000E-01 0.500 F 0.113 0.197 o 691 0.60 Yes No
2018TP O C K 2018-11-03.12999 1.000E-05 00:46:01.360 1.500E-01 0.500 F -0.272 -0.071 -19° 43' 57.20" 1.000E-01 0.500 F 0.113 -0.094 o 691 0.24 Yes No
2018UM1 O C 2018-11-03.13899 1.000E-05 00:07:32.470 1.500E-01 0.500 F -0.186 -0.060 +15° 40' 25.90" 1.000E-01 0.500 F 0.397 0.111 20.3 V 0.70 -0.02 o 691 0.25 Yes Yes
2018UM1 O C 2018-11-03.14366 1.000E-05 00:07:33.470 1.500E-01 0.500 F -0.186 0.427 +15° 40' 21.10" 1.000E-01 0.500 F 0.397 -0.140 20.0 V 0.70 -0.32 o 691 0.90 Yes Yes
2018UM1 O C 2018-11-03.14831 1.000E-05 00:07:34.370 1.500E-01 0.500 F -0.186 -0.448 +15° 40' 16.80" 1.000E-01 0.500 F 0.397 0.104 19.9 V 0.70 -0.42 o 691 0.92 Yes Yes
2018TS O C 2018-11-03.15542 1.000E-05 00:40:51.730 1.500E-01 0.500 F -0.269 -0.165 -00° 35' 21.40" 1.000E-01 0.500 F 0.304 -0.163 20.1 V 0.70 -0.16 o 691 0.47 Yes Yes
2018TS O C 2018-11-03.16486 1.000E-05 00:40:52.100 1.500E-01 0.500 F -0.269 -0.091 -00° 35' 17.10" 1.000E-01 0.500 F 0.304 -0.178 19.7 V 0.70 -0.56 o 691 0.40 Yes Yes
2018TS O C 2018-11-03.17431 1.000E-05 00:40:52.460 1.500E-01 0.500 F -0.269 -0.127 -00° 35' 12.90" 1.000E-01 0.500 F 0.304 -0.303 19.8 V 0.70 -0.46 o 691 0.66 Yes Yes
2018TO1 O C K 2018-11-03.22155 1.000E-05 02:04:39.070 1.500E-01 0.500 F -0.379 -0.352 -00° 58' 49.10" 1.000E-01 0.500 F 0.311 0.437 20.1 R 0.70 0.09 o 691 1.12 Yes Yes
2018TO1 O C K 2018-11-03.22830 1.000E-05 02:04:38.570 1.500E-01 0.500 F -0.379 -0.007 -00° 58' 42.50" 1.000E-01 0.500 F 0.311 0.086 20.6 R 0.70 0.59 o 691 0.17 Yes Yes
2018TO1 O C K 2018-11-03.23505 1.000E-05 02:04:38.040 1.500E-01 0.500 F -0.379 -0.100 -00° 58' 35.60" 1.000E-01 0.500 F 0.311 0.035 20.4 R 0.70 0.39 o 691 0.21 Yes Yes
2018UJ O C K 2018-11-03.27573 1.000E-05 02:31:21.630 1.500E-01 0.500 F -0.176 -0.056 +05° 40' 49.30" 1.000E-01 0.500 F 0.204 -0.106 19.8 R 0.70 0.27 o 691 0.24 Yes Yes
2018UJ O C K 2018-11-03.28595 1.000E-05 02:31:24.330 1.500E-01 0.500 F -0.176 -0.077 +05° 40' 30.20" 1.000E-01 0.500 F 0.204 0.246 19.5 R 0.70 -0.03 o 691 0.52 Yes Yes
2018UJ O C K 2018-11-03.29618 1.000E-05 02:31:27.040 1.500E-01 0.500 F -0.176 0.050 +05° 40' 10.40" 1.000E-01 0.500 F 0.204 -0.073 20.2 R 0.70 0.67 o 691 0.18 Yes Yes
2017EB3 O C K 2018-11-03.32456 1.000E-05 03:00:46.690 1.500E-01 0.500 F -0.242 0.032 +24° 04' 37.10" 1.000E-01 0.500 F 0.310 -0.765 o 691 1.55 Yes No
2017EB3 O C K 2018-11-03.33256 1.000E-05 03:00:44.470 1.500E-01 0.500 F -0.242 0.475 +24° 04' 36.10" 1.000E-01 0.500 F 0.310 -0.817 o 691 1.92 Yes No
2017EB3 O C K 2018-11-03.34055 1.000E-05 03:00:42.120 1.500E-01 0.500 F -0.242 -0.920 +24° 04' 36.40" 1.000E-01 0.500 F 0.310 0.492 o 691 2.17 Yes No
2018SN O C K 2018-11-03.36459 1.000E-05 02:30:10.290 1.500E-01 0.500 F -0.095 -0.043 +24° 50' 29.20" 1.000E-01 0.500 F 0.247 0.308 19.5 R 0.70 -0.05 o 691 0.63 Yes Yes
2018SN O C K 2018-11-03.36904 1.000E-05 02:30:09.710 1.500E-01 0.500 F -0.095 0.178 +24° 50' 39.30" 1.000E-01 0.500 F 0.247 0.225 19.9 R 0.70 0.35 o 691 0.58 Yes Yes
2018SN O C K 2018-11-03.37349 1.000E-05 02:30:09.080 1.500E-01 0.500 F -0.095 -0.293 +24° 50' 49.40" 1.000E-01 0.500 F 0.247 0.151 19.8 R 0.70 0.25 o 691 0.67 Yes Yes
2018UJ1 O C K 2018-11-03.37956 1.000E-05 02:16:18.900 1.500E-01 0.500 F -0.084 -0.070 +23° 45' 04.70" 1.000E-01 0.500 F 0.210 0.228 19.0 R 0.70 0.83 o 691 0.48 Yes Yes
2018UJ1 O C K 2018-11-03.38283 1.000E-05 02:16:18.290 1.500E-01 0.500 F -0.084 -0.226 +23° 45' 32.20" 1.000E-01 0.500 F 0.210 0.168 18.0 R 0.70 -0.17 o 691 0.57 Yes Yes
2018UJ1 O C K 2018-11-03.38610 1.000E-05 02:16:17.700 1.500E-01 0.500 F -0.084 -0.133 +23° 45' 59.80" 1.000E-01 0.500 F 0.210 0.228 18.5 R 0.70 0.33 o 691 0.53 Yes Yes
2008TY3 O C K 2018-11-03.39086 1.000E-05 03:07:58.600 1.500E-01 0.500 F -0.195 -0.024 +22° 30' 04.70" 1.000E-01 0.500 F 0.384 -0.115 o 691 0.24 Yes No
2008TY3 O C K 2018-11-03.40106 1.000E-05 03:07:58.020 1.500E-01 0.500 F -0.195 0.115 +22° 30' 08.60" 1.000E-01 0.500 F 0.384 -0.048 o 691 0.25 Yes No
2008TY3 O C K 2018-11-03.41125 1.000E-05 03:07:57.430 1.500E-01 0.500 F -0.195 0.050 +22° 30' 12.00" 1.000E-01 0.500 F 0.384 -0.434 o 691 0.88 Yes No
2015XE352 O C K 2018-11-03.42201 1.000E-05 03:31:20.250 1.500E-01 0.500 F -0.208 0.215 +19° 08' 29.50" 1.000E-01 0.500 F 0.332 0.301 21.4 R 0.70 0.38 o 691 0.74 Yes Yes
2015XE352 O C K 2018-11-03.43244 1.000E-05 03:31:18.650 1.500E-01 0.500 F -0.208 0.061 +19° 08' 25.80" 1.000E-01 0.500 F 0.332 0.565 21.3 R 0.70 0.28 o 691 1.14 Yes Yes
2014XR6 O C K 2018-11-03.48399 1.000E-05 04:45:53.040 1.500E-01 0.500 F -0.228 -0.128 +07° 34' 34.60" 1.000E-01 0.500 F 0.231 0.202 20.2 R 0.70 0.33 o 691 0.48 Yes Yes
2014XR6 O C K 2018-11-03.49122 1.000E-05 04:45:52.750 1.500E-01 0.500 F -0.228 0.354 +07° 34' 40.10" 1.000E-01 0.500 F 0.231 0.059 20.5 R 0.70 0.63 o 691 0.72 Yes Yes
2014XR6 O C K 2018-11-03.49844 1.000E-05 04:45:52.420 1.500E-01 0.500 F -0.228 0.227 +07° 34' 46.00" 1.000E-01 0.500 F 0.231 0.324 20.6 R 0.70 0.73 o 691 0.79 Yes Yes
2018LB1 O C K 2018-11-04.11066 1.000E-05 21:22:35.390 1.500E-01 0.500 F -0.195 -0.291 -12° 04' 45.60" 1.000E-01 0.500 F 0.278 0.272 19.9 R 0.70 -0.19 o 691 0.82 Yes Yes
2018LB1 O C K 2018-11-04.11937 1.000E-05 21:22:39.100 1.500E-01 0.500 F -0.195 0.143 -12° 04' 27.30" 1.000E-01 0.500 F 0.278 0.084 19.7 R 0.70 -0.39 o 691 0.34 Yes Yes
2018UM1 O C K 2018-11-04.17476 1.000E-05 00:11:28.860 1.500E-01 0.500 F -0.145 -0.391 +15° 23' 24.50" 1.000E-01 0.500 F 0.461 0.138 20.5 R 0.70 0.50 o 691 0.83 Yes Yes
2018UM1 O C K 2018-11-04.17942 1.000E-05 00:11:29.790 1.500E-01 0.500 F -0.145 -0.128 +15° 23' 19.90" 1.000E-01 0.500 F 0.461 -0.058 20.8 R 0.70 0.80 o 691 0.28 Yes Yes
2018UM1 O C K 2018-11-04.18408 1.000E-05 00:11:30.700 1.500E-01 0.500 F -0.145 -0.145 +15° 23' 15.60" 1.000E-01 0.500 F 0.461 0.060 20.3 R 0.70 0.30 o 691 0.32 Yes Yes
2018TS O C K 2018-11-04.19084 1.000E-05 00:41:51.830 1.500E-01 0.500 F -0.209 0.019 -00° 26' 59.70" 1.000E-01 0.500 F 0.341 -0.264 20.3 R 0.70 0.47 o 691 0.53 Yes Yes
2000GG147 O C 2018-11-04.19084 1.000E-05 00:44:32.120 1.500E-01 0.500 F -0.384 -0.262 -00° 26' 13.00" 1.000E-01 0.500 F 0.355 0.119 o 691 0.58 Yes No
2018TP O C K 2018-11-04.19936 1.000E-05 00:47:18.670 1.500E-01 0.500 F -0.301 -0.121 -19° 43' 53.60" 1.000E-01 0.500 F 0.170 -0.139 20.8 R 0.70 -0.44 o 691 0.38 Yes Yes
1994RC O C K 2018-11-04.20817 1.000E-05 00:47:47.130 1.500E-01 0.500 F -0.264 -0.111 +11° 53' 39.30" 1.000E-01 0.500 F 0.363 0.514 21.2 R 0.70 0.00 o 691 1.06 Yes Yes
2000GG147 O C 2018-11-04.21694 1.000E-05 00:44:28.620 1.500E-01 0.500 F -0.384 -0.036 -00° 25' 48.60" 1.000E-01 0.500 F 0.355 0.165 o 691 0.34 Yes No
2018TS O C 2018-11-04.21694 1.000E-05 00:41:52.940 1.500E-01 0.500 F -0.209 -0.305 -00° 26' 46.20" 1.000E-01 0.500 F 0.341 -0.136 o 691 0.67 Yes No
2018TP O C K 2018-11-04.22536 1.000E-05 00:47:20.260 1.500E-01 0.500 F -0.301 -0.562 -19° 43' 53.00" 1.000E-01 0.500 F 0.170 -0.301 21.7 R 0.70 0.46 o 691 1.30 Yes Yes
1994RC O C K 2018-11-04.23399 1.000E-05 00:47:45.930 1.500E-01 0.500 F -0.264 0.164 +11° 53' 30.10" 1.000E-01 0.500 F 0.363 0.379 21.8 R 0.70 0.60 o 691 0.84 Yes Yes
2000GG147 O C 2018-11-04.24273 1.000E-05 00:44:25.150 1.500E-01 0.500 F -0.384 -0.002 -00° 25' 24.70" 1.000E-01 0.500 F 0.355 -0.012 o 691 0.02 Yes No
2018TS O C K 2018-11-04.24273 1.000E-05 00:41:54.080 1.500E-01 0.500 F -0.209 -0.016 -00° 26' 32.80" 1.000E-01 0.500 F 0.341 0.008 20.2 R 0.70 0.37 o 691 0.04 Yes Yes
2018TP O C K 2018-11-04.25114 1.000E-05 00:47:21.930 1.500E-01 0.500 F -0.301 0.324 -19° 43' 51.70" 1.000E-01 0.500 F 0.170 0.022 21.9 R 0.70 0.65 o 691 0.66 Yes Yes
1994RC O C K 2018-11-04.25977 1.000E-05 00:47:44.690 1.500E-01 0.500 F -0.264 -0.214 +11° 53' 20.90" 1.000E-01 0.500 F 0.363 0.260 21.1 R 0.70 -0.10 o 691 0.68 Yes Yes
2018TO1 O C K 2018-11-04.27031 1.000E-05 02:03:30.040 1.500E-01 0.500 F -0.379 0.017 -00° 40' 58.70" 1.000E-01 0.500 F 0.311 -0.097 20.3 R 0.70 0.21 o 691 0.20 Yes Yes
2018TO1 O C K 2018-11-04.27613 1.000E-05 02:03:29.630 1.500E-01 0.500 F -0.379 0.294 -00° 40' 52.60" 1.000E-01 0.500 F 0.311 0.117 20.1 R 0.70 0.01 o 691 0.63 Yes Yes
2018TO1 O C K 2018-11-04.28193 1.000E-05 02:03:29.190 1.500E-01 0.500 F -0.379 0.096 -00° 40' 46.90" 1.000E-01 0.500 F 0.311 -0.050 20.3 R 0.70 0.21 o 691 0.22 Yes Yes
2018VC O C 2018-11-04.28913 1.000E-05 02:08:36.440 1.500E-01 0.500 F -0.173 -0.255 +31° 08' 36.90" 1.000E-01 0.500 F 0.248 0.095 o 691 0.55 Yes No
2018VC O C 2018-11-04.29275 1.000E-05 02:08:36.720 1.500E-01 0.500 F -0.173 -0.277 +31° 08' 54.60" 1.000E-01 0.500 F 0.248 -0.234 o 691 0.73 Yes No
2018VC O C 2018-11-04.29636 1.000E-05 02:08:37.010 1.500E-01 0.500 F -0.173 -0.175 +31° 09' 12.70" 1.000E-01 0.500 F 0.248 0.013 o 691 0.35 Yes No
2017EB3 O C K 2018-11-04.32262 1.000E-05 02:56:34.510 1.500E-01 0.500 F -0.263 0.480 +24° 02' 26.00" 1.000E-01 0.500 F 0.260 -0.801 o 691 1.90 Yes No
2012WP3 O C 2018-11-04.33109 1.000E-05 03:02:36.270 1.500E-01 0.500 F -0.206 -0.047 +22° 37' 46.60" 1.000E-01 0.500 F 0.331 -0.051 o 691 0.14 Yes No
2008TY3 O C K 2018-11-04.33109 1.000E-05 03:07:16.180 1.500E-01 0.500 F -0.148 0.098 +22° 36' 16.10" 1.000E-01 0.500 F 0.359 -0.531 o 691 1.09 Yes No
2015XE352 O C K 2018-11-04.34674 1.000E-05 03:29:04.100 1.500E-01 0.500 F -0.230 -0.779 +19° 02' 47.00" 1.000E-01 0.500 F 0.396 -0.266 20.8 R 0.70 -0.19 o 691 1.65 Yes Yes
2017EB3 O C K 2018-11-04.35641 1.000E-05 02:56:25.240 1.500E-01 0.500 F -0.263 0.758 +24° 02' 19.80" 1.000E-01 0.500 F 0.260 -0.941 o 691 2.47 Yes No
2008TY3 O C K 2018-11-04.36479 1.000E-05 03:07:14.230 1.500E-01 0.500 F -0.148 0.541 +22° 36' 29.10" 1.000E-01 0.500 F 0.359 0.056 o 691 1.09 Yes No
2012WP3 O C 2018-11-04.36479 1.000E-05 03:02:35.900 1.500E-01 0.500 F -0.137 -0.141 +22° 35' 38.00" 1.000E-01 0.500 F 0.357 -0.021 o 691 0.29 Yes No
2015XE352 O C K 2018-11-04.37996 1.000E-05 03:28:59.070 1.500E-01 0.500 F -0.230 0.018 +19° 02' 34.70" 1.000E-01 0.500 F 0.396 0.045 20.7 R 0.70 -0.29 o 691 0.10 Yes Yes
2017EB3 O C K 2018-11-04.38923 1.000E-05 02:56:16.220 1.500E-01 0.500 F -0.263 0.043 +24° 02' 13.70" 1.000E-01 0.500 F 0.260 -0.154 o 691 0.32 Yes No
2008TY3 O C K 2018-11-04.39762 1.000E-05 03:07:12.300 1.500E-01 0.500 F -0.148 0.198 +22° 36' 40.10" 1.000E-01 0.500 F 0.359 -0.544 o 691 1.16 Yes No
2012WP3 O C 2018-11-04.39762 1.000E-05 03:02:35.570 1.500E-01 0.500 F -0.137 0.009 +22° 33' 32.40" 1.000E-01 0.500 F 0.357 0.004 o 691 0.02 Yes No
2015XE352 O C K 2018-11-04.41280 1.000E-05 03:28:54.060 1.500E-01 0.500 F -0.230 0.118 +19° 02' 22.00" 1.000E-01 0.500 F 0.396 -0.006 o 691 0.24 Yes No
2018UG1 O C K 2018-11-04.42299 1.000E-05 03:47:09.530 1.500E-01 0.500 F -0.308 0.105 -02° 20' 04.30" 1.000E-01 0.500 F 0.285 -0.125 o 691 0.34 Yes No
2014XR6 O C H 2018-11-04.42805 1.000E-05 04:45:12.450 1.500E-01 0.500 F -0.228 -0.040 +07° 47' 08.50" 1.000E-01 0.500 F 0.231 -0.415 20.2 R 0.70 0.38 o 691 0.84 Yes Yes
2018UG1 O C K 2018-11-04.43678 1.000E-05 03:47:12.020 1.500E-01 0.500 F -0.308 0.335 -02° 20' 12.80" 1.000E-01 0.500 F 0.285 -0.103 o 691 0.72 Yes No
2014XR6 O C H 2018-11-04.44179 1.000E-05 04:45:11.780 1.500E-01 0.500 F -0.228 -0.135 +07° 47' 20.00" 1.000E-01 0.500 F 0.231 -0.067 20.1 R 0.70 0.28 o 691 0.30 Yes Yes
2018UG1 O C K 2018-11-04.45029 1.000E-05 03:47:14.440 1.500E-01 0.500 F -0.308 -0.079 -02° 20' 21.30" 1.000E-01 0.500 F 0.285 -0.298 o 691 0.64 Yes No
2014XR6 O C H 2018-11-04.45532 1.000E-05 04:45:11.110 1.500E-01 0.500 F -0.228 -0.392 +07° 47' 31.60" 1.000E-01 0.500 F 0.231 0.554 20.3 R 0.70 0.48 o 691 1.36 Yes Yes
2018OB1 O C K 2018-11-04.46662 1.000E-05 09:19:09.120 1.500E-01 0.500 F 0.128 0.156 +06° 30' 18.00" 1.000E-01 0.500 F 0.264 0.525 o 691 1.11 Yes No
2018OB1 O C K 2018-11-04.48617 1.000E-05 09:19:11.640 1.500E-01 0.500 F 0.128 0.015 +06° 30' 03.50" 1.000E-01 0.500 F 0.264 -0.810 o 691 1.64 Yes No
2018OB1 O C K 2018-11-04.50727 1.000E-05 09:19:14.340 1.500E-01 0.500 F 0.128 -0.273 +06° 29' 49.50" 1.000E-01 0.500 F 0.264 -0.584 o 691 1.31 Yes No
2018UY O C K 2018-11-05.47111 1.000E-05 03:22:53.360 1.500E-01 0.500 F -0.279 -0.021 +16° 12' 09.50" 1.000E-01 0.500 F 0.249 0.050 o 691 0.11 Yes No
2018TN6 O C 2018-11-05.47111 1.000E-05 03:21:24.270 1.500E-01 0.500 F -0.299 -0.239 +15° 27' 47.50" 1.000E-01 0.500 F 0.270 -0.201 o 691 0.63 Yes No
2015XE352 O C K 2018-11-05.47541 1.000E-05 03:26:17.110 1.500E-01 0.500 F -0.230 0.085 +18° 55' 36.20" 1.000E-01 0.500 F 0.396 -0.989 20.8 R 0.70 -0.16 o 691 1.99 Yes Yes
2018TN6 O C 2018-11-05.48123 1.000E-05 03:21:23.730 1.500E-01 0.500 F -0.299 -0.371 +15° 27' 24.10" 1.000E-01 0.500 F 0.270 0.032 o 691 0.75 Yes No
2018UY O C K 2018-11-05.48123 1.000E-05 03:22:51.780 1.500E-01 0.500 F -0.279 -0.205 +16° 12' 03.70" 1.000E-01 0.500 F 0.249 -0.128 o 691 0.49 Yes No
2018UY O C K 2018-11-05.49134 1.000E-05 03:22:50.240 1.500E-01 0.500 F -0.279 0.126 +16° 11' 58.10" 1.000E-01 0.500 F 0.249 -0.101 o 691 0.32 Yes No
2018TN6 O C 2018-11-05.49134 1.000E-05 03:21:23.160 1.500E-01 0.500 F -0.299 -1.023 +15° 27' 00.00" 1.000E-01 0.500 F 0.270 -0.449 o 691 2.26 Yes No
2015XE352 O C K 2018-11-05.49563 1.000E-05 03:26:14.060 1.500E-01 0.500 F -0.230 -0.043 +18° 55' 28.70" 1.000E-01 0.500 F 0.396 -0.280 20.5 R 0.70 -0.46 o 691 0.57 Yes Yes
1998OH O C 2018-11-05.50294 1.000E-05 04:46:12.290 1.500E-01 0.500 F -0.228 -0.222 +08° 04' 51.10" 1.000E-01 0.500 F 0.231 -0.048 o 691 0.45 Yes No
2014XR6 O C K 2018-11-05.50294 1.000E-05 04:44:22.120 1.500E-01 0.500 F -0.212 -0.060 +08° 02' 01.50" 1.000E-01 0.500 F 0.242 -0.040 19.8 R 0.70 0.04 o 691 0.15 Yes Yes
1998OH O C 2018-11-05.50847 1.000E-05 04:46:11.990 1.500E-01 0.500 F -0.228 -0.172 +08° 04' 40.80" 1.000E-01 0.500 F 0.231 -0.076 o 691 0.38 Yes No
2014XR6 O C K 2018-11-05.50847 1.000E-05 04:44:21.840 1.500E-01 0.500 F -0.212 -0.020 +08° 02' 06.20" 1.000E-01 0.500 F 0.242 0.000 19.6 R 0.70 -0.16 o 691 0.04 Yes Yes
1998OH O C 2018-11-05.51400 1.000E-05 04:46:11.690 1.500E-01 0.500 F -0.228 -0.129 +08° 04' 30.60" 1.000E-01 0.500 F 0.231 -0.001 o 691 0.26 Yes No
2014XR6 O C K 2018-11-05.51400 1.000E-05 04:44:21.570 1.500E-01 0.500 F -0.212 0.162 +08° 02' 10.80" 1.000E-01 0.500 F 0.242 -0.059 19.4 R 0.70 -0.36 o 691 0.35 Yes Yes
2001TZ1 O C K 2018-11-06.06192 1.000E-05 20:09:04.780 1.500E-01 0.500 F -0.026 0.460 -09° 26' 39.50" 1.000E-01 0.500 F 0.215 -0.690 o 691 1.66 Yes No
2001TZ1 O C K 2018-11-06.06555 1.000E-05 20:09:05.810 1.500E-01 0.500 F -0.026 0.244 -09° 26' 47.50" 1.000E-01 0.500 F 0.215 0.035 o 691 0.49 Yes No
2001TZ1 O C K 2018-11-06.06917 1.000E-05 20:09:06.840 1.500E-01 0.500 F -0.026 0.069 -09° 26' 55.80" 1.000E-01 0.500 F 0.215 0.434 o 691 0.88 Yes No
2018NN4 O C K 2018-11-06.07500 1.000E-05 20:34:55.950 1.500E-01 0.500 F 0.063 -0.434 +16° 53' 13.10" 1.000E-01 0.500 F 0.316 -0.244 o 691 1.03 Yes No
2014TW32 O C K 2018-11-06.08409 1.000E-05 20:42:57.470 1.500E-01 0.500 F 0.098 0.489 +19° 19' 31.50" 1.000E-01 0.500 F 0.298 -0.049 o 691 1.03 Yes No
2012FN62 O C K 2018-11-06.08851 1.000E-05 20:48:27.370 1.500E-01 0.500 F 0.079 0.998 -22° 22' 21.00" 1.000E-01 0.500 F 0.258 0.472 o 691 2.36 Yes No
2018NN4 O C K 2018-11-06.09314 1.000E-05 20:34:58.320 1.500E-01 0.500 F 0.063 -0.171 +16° 53' 16.40" 1.000E-01 0.500 F 0.316 -0.177 o 691 0.50 Yes No
2014TW32 O C K 2018-11-06.10223 1.000E-05 20:43:03.900 1.500E-01 0.500 F 0.098 -0.502 +19° 20' 22.00" 1.000E-01 0.500 F 0.298 0.072 o 691 1.06 Yes No
2012FN62 O C K 2018-11-06.10645 1.000E-05 20:48:31.010 1.500E-01 0.500 F 0.079 -0.176 -22° 22' 13.10" 1.000E-01 0.500 F 0.258 0.165 o 691 0.51 Yes No
2018NN4 O C K 2018-11-06.11111 1.000E-05 20:35:00.680 1.500E-01 0.500 F 0.063 0.244 +16° 53' 20.00" 1.000E-01 0.500 F 0.316 0.240 o 691 0.70 Yes No
2014TW32 O C K 2018-11-06.12020 1.000E-05 20:43:10.390 1.500E-01 0.500 F 0.098 0.143 +19° 21' 11.60" 1.000E-01 0.500 F 0.298 -0.132 o 691 0.41 Yes No
2012FN62 O C K 2018-11-06.12440 1.000E-05 20:48:34.730 1.500E-01 0.500 F 0.079 -0.286 -22° 22' 05.10" 1.000E-01 0.500 F 0.258 -0.079 o 691 0.64 Yes No
2010UD O C K 2018-11-06.13276 1.000E-05 21:17:13.850 1.500E-01 0.500 F -0.126 -0.402 -12° 59' 54.50" 1.000E-01 0.500 F 0.299 1.216 o 691 2.67 Yes No
2005SC71 O C K 2018-11-06.13935 1.000E-05 21:03:51.200 1.500E-01 0.500 F 0.031 -0.217 -05° 40' 48.50" 1.000E-01 0.500 F 0.279 0.016 o 691 0.44 Yes No
2010UD O C K 2018-11-06.14291 1.000E-05 21:17:16.390 1.500E-01 0.500 F -0.126 0.301 -12° 58' 57.00" 1.000E-01 0.500 F 0.299 0.146 o 691 0.71 Yes No
2005SC71 O C K 2018-11-06.14951 1.000E-05 21:03:53.750 1.500E-01 0.500 F 0.031 0.108 -05° 41' 04.30" 1.000E-01 0.500 F 0.279 -0.143 o 691 0.36 Yes No
2005SC71 O C K 2018-11-06.15967 1.000E-05 21:03:56.240 1.500E-01 0.500 F 0.031 -0.480 -05° 41' 19.80" 1.000E-01 0.500 F 0.279 -0.009 o 691 0.96 Yes No
1994RC O C K 2018-11-06.16888 1.000E-05 00:46:25.620 1.500E-01 0.500 F -0.255 -0.217 +11° 42' 33.80" 1.000E-01 0.500 F 0.341 0.113 21.7 R 0.70 0.40 o 691 0.50 Yes Yes
2018TP O C K 2018-11-06.17821 1.000E-05 00:49:37.710 1.500E-01 0.500 F -0.301 0.478 -19° 41' 17.80" 1.000E-01 0.500 F 0.170 0.392 o 691 1.26 Yes No
1994RC O C K 2018-11-06.18944 1.000E-05 00:46:24.760 1.500E-01 0.500 F -0.255 -0.200 +11° 42' 27.10" 1.000E-01 0.500 F 0.341 0.088 22.1 R 0.70 0.80 o 691 0.44 Yes Yes
2018TP O C K 2018-11-06.19864 1.000E-05 00:49:38.910 1.500E-01 0.500 F -0.301 0.151 -19° 41' 15.40" 1.000E-01 0.500 F 0.170 0.440 o 691 0.95 Yes No
1994RC O C K 2018-11-06.20737 1.000E-05 00:46:24.020 1.500E-01 0.500 F -0.255 -0.036 +11° 42' 21.70" 1.000E-01 0.500 F 0.341 0.524 21.3 R 0.70 -0.01 o 691 1.06 Yes Yes
2018TP O C K 2018-11-06.21655 1.000E-05 00:49:39.960 1.500E-01 0.500 F -0.301 -0.123 -19° 41' 13.80" 1.000E-01 0.500 F 0.170 -0.128 o 691 0.36 Yes No
2018SN O C H 2018-11-06.22756 1.000E-05 02:24:31.190 1.500E-01 0.500 F -0.124 -0.265 +26° 35' 00.40" 1.000E-01 0.500 F 0.225 -0.060 19.6 R 0.70 -0.11 o 691 0.55 Yes Yes
2018SN O C H 2018-11-06.23428 1.000E-05 02:24:30.340 1.500E-01 0.500 F -0.124 -0.234 +26° 35' 15.00" 1.000E-01 0.500 F 0.225 0.520 19.7 R 0.70 -0.01 o 691 1.15 Yes Yes
2018SN O C H 2018-11-06.24104 1.000E-05 02:24:29.480 1.500E-01 0.500 F -0.124 -0.256 +26° 35' 28.60" 1.000E-01 0.500 F 0.225 0.040 19.7 R 0.70 -0.01 o 691 0.52 Yes Yes
2018UY O C K 2018-11-06.25481 1.000E-05 03:20:54.460 1.500E-01 0.500 F -0.279 -0.176 +16° 05' 04.10" 1.000E-01 0.500 F 0.249 0.140 20.5 R 0.70 0.07 o 691 0.45 Yes Yes
2018UY O C K 2018-11-06.25948 1.000E-05 03:20:53.720 1.500E-01 0.500 F -0.279 -0.021 +16° 05' 01.50" 1.000E-01 0.500 F 0.249 0.077 20.5 R 0.70 0.07 o 691 0.16 Yes Yes
2018UY O C K 2018-11-06.26414 1.000E-05 03:20:52.960 1.500E-01 0.500 F -0.279 -0.171 +16° 04' 59.10" 1.000E-01 0.500 F 0.249 0.213 20.1 R 0.70 -0.33 o 691 0.55 Yes Yes
2019AC O C 2018-11-06.33175 1.000E-05 04:12:59.540 1.500E-01 0.500 F -0.204 -0.268 -04° 50' 16.40" 1.000E-01 0.500 F 0.008 -0.170 20.8 V 0.70 -0.09 o 691 0.64 Yes Yes
2019AC O C 2018-11-06.34954 1.000E-05 04:12:59.020 1.500E-01 0.500 F -0.204 -0.482 -04° 50' 20.60" 1.000E-01 0.500 F 0.008 -0.406 20.7 V 0.70 -0.19 o 691 1.27 Yes Yes
2019AC O C 2018-11-06.36734 1.000E-05 04:12:58.530 1.500E-01 0.500 F -0.204 -0.217 -04° 50' 24.40" 1.000E-01 0.500 F 0.008 -0.266 20.4 V 0.70 -0.49 o 691 0.69 Yes Yes
2005FN4 O C K 2018-11-06.38183 1.000E-05 04:57:23.520 1.500E-01 0.500 F -0.172 0.450 -17° 48' 29.40" 1.000E-01 0.500 F 0.081 0.145 21.7 R 0.70 0.79 o 691 0.99 Yes Yes
2005FN4 O C K 2018-11-06.39324 1.000E-05 04:57:22.200 1.500E-01 0.500 F -0.172 0.372 -17° 48' 39.50" 1.000E-01 0.500 F 0.081 0.033 21.9 R 0.70 0.99 o 691 0.78 Yes Yes
2005FN4 O C K 2018-11-06.40464 1.000E-05 04:57:20.870 1.500E-01 0.500 F -0.172 0.135 -17° 48' 49.50" 1.000E-01 0.500 F 0.081 -0.005 21.7 R 0.70 0.79 o 691 0.28 Yes Yes
2018UG1 O C K 2018-11-06.44928 1.000E-05 03:53:47.980 1.500E-01 0.500 F -0.215 0.139 -02° 38' 09.10" 1.000E-01 0.500 F 0.230 0.243 o 691 0.58 Yes No
2018UG1 O C K 2018-11-06.45429 1.000E-05 03:53:48.690 1.500E-01 0.500 F -0.215 -0.306 -02° 38' 11.40" 1.000E-01 0.500 F 0.230 0.098 o 691 0.67 Yes No
2018UG1 O C K 2018-11-06.45931 1.000E-05 03:53:49.480 1.500E-01 0.500 F -0.215 0.372 -02° 38' 13.90" 1.000E-01 0.500 F 0.230 -0.250 o 691 0.93 Yes No
2008LW16 O C K 2018-11-06.47678 1.000E-05 09:57:14.830 1.500E-01 0.500 F 0.169 -0.241 -10° 23' 16.20" 1.000E-01 0.500 F 0.086 -0.270 21.2 R 0.70 0.26 o 691 0.73 Yes Yes
2008LW16 O C K 2018-11-06.49197 1.000E-05 09:57:18.540 1.500E-01 0.500 F 0.169 0.397 -10° 22' 51.70" 1.000E-01 0.500 F 0.086 -0.367 21.1 R 0.70 0.16 o 691 1.08 Yes Yes
2008LW16 O C K 2018-11-06.50718 1.000E-05 09:57:22.170 1.500E-01 0.500 F 0.169 -0.150 -10° 22' 27.00" 1.000E-01 0.500 F 0.086 -0.319 21.2 R 0.70 0.26 o 691 0.71 Yes Yes
2001TZ1 O C K 2018-11-07.06585 1.000E-05 20:13:57.540 1.500E-01 0.500 F -0.066 -0.253 -10° 06' 31.00" 1.000E-01 0.500 F 0.165 0.032 o 691 0.51 Yes No
2001TZ1 O C K 2018-11-07.07386 1.000E-05 20:13:59.880 1.500E-01 0.500 F -0.066 0.255 -10° 06' 50.50" 1.000E-01 0.500 F 0.165 -0.596 o 691 1.30 Yes No
2001TZ1 O C K 2018-11-07.08189 1.000E-05 20:14:02.180 1.500E-01 0.500 F -0.066 0.079 -10° 07' 09.00" 1.000E-01 0.500 F 0.165 -0.184 o 691 0.40 Yes No
2018NN4 O C K 2018-11-07.09324 1.000E-05 20:37:10.170 1.500E-01 0.500 F 0.063 0.170 +16° 56' 17.20" 1.000E-01 0.500 F 0.316 -0.555 21.2 R 0.70 -0.11 o 691 1.18 Yes Yes
2018TO6 O C K 2018-11-07.10182 1.000E-05 21:17:13.050 1.500E-01 0.500 F -0.009 0.120 +12° 31' 15.00" 1.000E-01 0.500 F 0.323 0.228 21.5 R 0.70 0.17 o 691 0.52 Yes Yes
2018NN4 O C K 2018-11-07.11031 1.000E-05 20:37:12.370 1.500E-01 0.500 F 0.063 -0.003 +16° 56' 20.80" 1.000E-01 0.500 F 0.316 0.004 20.7 R 0.70 -0.61 o 691 0.01 Yes Yes
2018TO6 O C K 2018-11-07.11858 1.000E-05 21:17:15.090 1.500E-01 0.500 F -0.009 0.012 +12° 31' 30.10" 1.000E-01 0.500 F 0.323 -0.072 21.7 R 0.70 0.37 o 691 0.15 Yes Yes
2018NN4 O C K 2018-11-07.12694 1.000E-05 20:37:14.550 1.500E-01 0.500 F 0.063 0.331 +16° 56' 23.80" 1.000E-01 0.500 F 0.316 0.056 21.4 R 0.70 0.09 o 691 0.70 Yes Yes
2018TO6 O C K 2018-11-07.13508 1.000E-05 21:17:17.110 1.500E-01 0.500 F -0.009 0.016 +12° 31' 45.70" 1.000E-01 0.500 F 0.323 0.395 21.8 R 0.70 0.47 o 691 0.80 Yes Yes
2018TY2 O C K 2018-11-07.14646 1.000E-05 23:56:22.420 1.500E-01 0.500 F -0.062 -0.052 +08° 46' 58.10" 1.000E-01 0.500 F 0.268 0.049 20.9 R 0.70 0.20 o 691 0.14 Yes Yes
2018FJ4 O C K 2018-11-07.15173 1.000E-05 23:38:02.100 1.500E-01 0.500 F -0.229 -0.276 -01° 23' 28.80" 1.000E-01 0.500 F 0.328 -0.018 19.7 R 0.70 -0.17 o 691 0.56 Yes Yes
2018TY2 O C K 2018-11-07.15519 1.000E-05 23:56:21.210 1.500E-01 0.500 F -0.062 -0.279 +08° 46' 48.90" 1.000E-01 0.500 F 0.268 0.120 20.9 R 0.70 0.20 o 691 0.61 Yes Yes
2018FJ4 O C K 2018-11-07.16033 1.000E-05 23:38:04.160 1.500E-01 0.500 F -0.229 0.160 -01° 23' 17.80" 1.000E-01 0.500 F 0.328 0.285 19.8 R 0.70 -0.07 o 691 0.66 Yes Yes
2018TY2 O C K 2018-11-07.16379 1.000E-05 23:56:20.030 1.500E-01 0.500 F -0.062 -0.325 +08° 46' 39.60" 1.000E-01 0.500 F 0.268 -0.043 20.6 R 0.70 -0.10 o 691 0.66 Yes Yes
2018FJ4 O C K 2018-11-07.16893 1.000E-05 23:38:06.160 1.500E-01 0.500 F -0.229 -0.290 -01° 23' 07.10" 1.000E-01 0.500 F 0.328 0.290 19.8 R 0.70 -0.07 o 691 0.83 Yes Yes
2018TG6 O C K 2018-11-07.17655 1.000E-05 00:13:32.650 1.500E-01 0.500 F -0.169 -0.443 -00° 14' 34.20" 1.000E-01 0.500 F 0.297 0.001 20.2 R 0.70 0.20 o 691 0.89 Yes Yes
2018TG6 O C K 2018-11-07.17982 1.000E-05 00:13:31.260 1.500E-01 0.500 F -0.169 0.038 -00° 14' 28.30" 1.000E-01 0.500 F 0.297 0.249 19.6 R 0.70 -0.40 o 691 0.50 Yes Yes
2018TG6 O C K 2018-11-07.18310 1.000E-05 00:13:29.830 1.500E-01 0.500 F -0.169 0.000 -00° 14' 22.90" 1.000E-01 0.500 F 0.297 -0.023 19.9 R 0.70 -0.10 o 691 0.05 Yes Yes

[1-200] [201-400] [401-600] [601-800] [801-1000] [1001-1200] [1201-1400] [1401-1600] [1601-1800] [1801-2000] [2001-2200] [2201-2400] [2401-2600] [2601-2800] [2801-3000] [3001-3200] [3201-3400] [3401-3600] [3601-3800] [3801-4000] [4001-4200] [4201-4400] [4401-4600] [4601-4800] [4801-5000] [5001-5200] [5201-5400] [5401-5600] [5601-5800] [5801-6000] [6001-6200] [6201-6400] [6401-6600] [6601-6800] [6801-7000] [7001-7200] [7201-7400] [7401-7600] [7601-7800] [7801-8000] [8001-8200] [8201-8400] [8401-8600] [8601-8800] [8801-9000] [9001-9200] [9201-9400] [9401-9600] [9601-9800] [9801-10000] [10001-10200] [10201-10400] [10401-10600] [10601-10800] [10801-11000] [11001-11200] [11201-11400] [11401-11600] [11601-11800] [11801-12000] [12001-12200] [12201-12400] [12401-12600] [12601-12800] [12801-13000] [13001-13200] [13201-13400] [13401-13600] [13601-13800] [13801-14000] [14001-14200] [14201-14400] [14401-14600] [14601-14800] [14801-15000] [15001-15200] [15201-15400] [15401-15600] [15601-15800] [15801-16000] [16001-16200] [16201-16400] [16401-16600] [16601-16800] [16801-17000] [17001-17200] [17201-17400] [17401-17600] [17601-17800] [17801-18000] [18001-18200] [18201-18400] [18401-18600] [18601-18800] [18801-19000] [19001-19200] [19201-19400] [19401-19600] [19601-19800] [19801-20000] [20001-20200] [20201-20400] [20401-20600] [20601-20800] [20801-21000] [21001-21200] [21201-21400] [21401-21600] [21601-21800] [21801-22000] [22001-22200] [22201-22400] [22401-22600] [22601-22800] [22801-23000] [23001-23200] [23201-23400] [23401-23600] [23601-23800] [23801-24000] [24001-24200] [24201-24400] [24401-24600] [24601-24800] [24801-25000] [25001-25200] [25201-25400] [25401-25600] [25601-25800] [25801-26000] [26001-26200] [26201-26400] [26401-26600] [26601-26800] [26801-27000] [27001-27200] [27201-27400] [27401-27600] [27601-27800] [27801-28000] [28001-28200] [28201-28400] [28401-28600] [28601-28800] [28801-29000] [29001-29200] [29201-29400] [29401-29600] [29601-29800] [29801-30000] [30001-30200] [30201-30400] [30401-30600] [30601-30800] [30801-31000] [31001-31200] [31201-31400] [31401-31600] [31601-31800] [31801-32000] [32001-32200] [32201-32400] [32401-32600] [32601-32800] [32801-33000] [33001-33200] [33201-33400] [33401-33600] [33601-33800] [33801-34000] [34001-34200] [34201-34400] [34401-34600] [34601-34800] [34801-35000] [35001-35200] [35201-35400] [35401-35600] [35601-35800] [35801-36000] [36001-36200] [36201-36400] [36401-36600] [36601-36800] [36801-37000] [37001-37200] [37201-37400] [37401-37600] [37601-37800] [37801-38000] [38001-38200] [38201-38400] [38401-38600] [38601-38800] [38801-39000] [39001-39200] [39201-39400] [39401-39600] [39601-39800] [39801-40000] [40001-40200] [40201-40400] [40401-40600] [40601-40800] [40801-41000] [41001-41200] [41201-41400] [41401-41600] [41601-41800] [41801-42000] [42001-42200] [42201-42400] [42401-42600] [42601-42800] [42801-43000] [43001-43200] [43201-43400] [43401-43600] [43601-43800] [43801-44000] [44001-44200] [44201-44400] [44401-44600] [44601-44800] [44801-45000] [45001-45200] [45201-45400] [45401-45600] [45601-45800] [45801-46000] [46001-46200] [46201-46400] [46401-46600] [46601-46800] [46801-47000] [47001-47200] [47201-47400] [47401-47600] [47601-47800] [47801-48000] [48001-48200] [48201-48400] [48401-48600] [48601-48800] [48801-49000] [49001-49200] [49201-49400] [49401-49600] [49601-49800] [49801-50000] [50001-50200] [50201-50400] [50401-50600] [50601-50741]